createdAt,value
2018-10-09T00:00:05.612Z,13.87
2018-10-09T00:02:34.304Z,14.03
2018-10-09T00:05:03.428Z,15.10
2018-10-09T00:07:32.411Z,16.03
2018-10-09T00:10:01.485Z,16.80
2018-10-09T00:12:29.942Z,15.37
2018-10-09T00:14:58.166Z,14.07
2018-10-09T00:17:26.819Z,13.77
2018-10-09T00:19:55.302Z,15.37
2018-10-09T00:22:24.024Z,12.97
2018-10-09T00:24:52.287Z,14.43
2018-10-09T00:27:20.922Z,13.27
2018-10-09T00:29:49.214Z,13.00
2018-10-09T00:32:17.806Z,12.23
2018-10-09T00:34:46.094Z,13.23
2018-10-09T00:37:14.541Z,12.27
2018-10-09T00:39:43.632Z,12.17
2018-10-09T00:42:12.280Z,12.90
2018-10-09T00:44:40.752Z,12.07
2018-10-09T00:47:10.270Z,12.37
2018-10-09T00:49:38.862Z,12.67
2018-10-09T00:52:07.734Z,12.47
2018-10-09T00:54:36.411Z,13.10
2018-10-09T00:57:04.889Z,13.40
2018-10-09T00:59:33.147Z,14.37
2018-10-09T01:02:02.330Z,18.40
2018-10-09T01:04:31.227Z,18.93
2018-10-09T01:07:00.118Z,17.63
2018-10-09T01:09:28.394Z,18.83
2018-10-09T01:11:57.993Z,16.63
2018-10-09T01:14:28.658Z,17.23
2018-10-09T01:16:57.207Z,17.17
2018-10-09T01:19:25.646Z,17.20
2018-10-09T01:21:54.635Z,17.23
2018-10-09T01:24:22.932Z,20.17
2018-10-09T01:26:52.166Z,18.57
2018-10-09T01:29:20.444Z,19.03
2018-10-09T01:31:48.914Z,17.90
2018-10-09T01:34:17.154Z,19.20
2018-10-09T01:36:45.372Z,23.13
2018-10-09T01:39:13.662Z,17.67
2018-10-09T01:41:42.198Z,16.63
2018-10-09T01:44:11.866Z,15.93
2018-10-09T01:46:40.440Z,14.30
2018-10-09T01:49:09.742Z,13.43
2018-10-09T01:51:38.508Z,15.03
2018-10-09T01:54:07.465Z,15.57
2018-10-09T01:56:36.492Z,14.83
2018-10-09T01:59:05.949Z,17.47
2018-10-09T02:01:34.810Z,16.87
2018-10-09T02:04:04.635Z,18.80
2018-10-09T02:06:32.942Z,17.77
2018-10-09T02:09:01.183Z,17.73
2018-10-09T02:11:30.198Z,18.73
2018-10-09T02:13:59.174Z,17.80
2018-10-09T02:16:27.650Z,17.57
2018-10-09T02:18:56.790Z,19.03
2018-10-09T02:21:25.970Z,16.87
2018-10-09T02:23:54.681Z,18.00
2018-10-09T02:26:23.727Z,18.60
2018-10-09T02:28:52.592Z,20.10
2018-10-09T02:31:21.760Z,20.00
2018-10-09T02:33:50.561Z,19.20
2018-10-09T02:36:19.131Z,18.67
2018-10-09T02:38:48.186Z,20.37
2018-10-09T02:41:17.661Z,16.27
2018-10-09T02:43:46.765Z,15.40
2018-10-09T02:46:15.355Z,18.10
2018-10-09T02:48:43.547Z,17.03
2018-10-09T02:51:12.406Z,19.40
2018-10-09T02:53:41.103Z,19.63
2018-10-09T02:56:09.462Z,22.77
2018-10-09T02:58:37.795Z,22.53
2018-10-09T03:01:07.076Z,20.43
2018-10-09T03:03:36.310Z,18.03
2018-10-09T03:06:04.828Z,19.50
2018-10-09T03:08:34.853Z,18.50
2018-10-09T03:11:03.247Z,18.00
2018-10-09T03:13:31.726Z,19.90
2018-10-09T03:16:00.349Z,19.60
2018-10-09T03:18:28.579Z,19.63
2018-10-09T03:20:56.791Z,20.83
2018-10-09T03:23:25.019Z,20.83
2018-10-09T03:25:53.611Z,18.47
2018-10-09T03:28:22.193Z,19.60
2018-10-09T03:30:50.575Z,20.27
2018-10-09T03:33:20.078Z,20.10
2018-10-09T03:35:48.680Z,19.93
2018-10-09T03:38:17.967Z,20.37
2018-10-09T03:40:46.274Z,18.40
2018-10-09T03:43:14.559Z,17.53
2018-10-09T03:45:43.358Z,19.87
2018-10-09T03:48:11.782Z,18.40
2018-10-09T03:50:40.289Z,20.17
2018-10-09T03:53:08.598Z,19.63
2018-10-09T03:55:37.262Z,20.80
2018-10-09T03:58:05.692Z,18.77
2018-10-09T04:00:33.931Z,19.07
2018-10-09T04:03:02.180Z,20.40
2018-10-09T04:05:30.680Z,20.10
2018-10-09T04:07:59.326Z,20.33
2018-10-09T04:10:27.828Z,19.93
2018-10-09T04:12:57.210Z,19.07
2018-10-09T04:15:26.110Z,20.97
2018-10-09T04:17:54.419Z,19.57
2018-10-09T04:20:22.670Z,19.47
2018-10-09T04:22:50.894Z,19.73
2018-10-09T04:25:20.250Z,20.80
2018-10-09T04:27:50.311Z,20.17
2018-10-09T04:30:19.014Z,19.80
2018-10-09T04:32:47.637Z,19.47
2018-10-09T04:35:17.104Z,19.67
2018-10-09T04:37:45.624Z,20.13
2018-10-09T04:40:15.844Z,19.57
2018-10-09T04:42:44.618Z,22.67
2018-10-09T04:45:28.716Z,22.00
2018-10-09T04:47:58.467Z,20.03
2018-10-09T04:50:28.399Z,21.10
2018-10-09T04:52:58.318Z,21.33
2018-10-09T04:55:28.055Z,22.57
2018-10-09T04:57:57.217Z,21.83
2018-10-09T05:00:26.222Z,21.90
2018-10-09T05:02:55.579Z,21.27
2018-10-09T05:05:24.821Z,20.07
2018-10-09T05:07:53.840Z,19.47
2018-10-09T05:10:22.799Z,19.90
2018-10-09T05:12:51.388Z,18.33
2018-10-09T05:15:19.985Z,19.63
2018-10-09T05:17:48.721Z,19.33
2018-10-09T05:20:17.673Z,20.03
2018-10-09T05:22:46.334Z,19.80
2018-10-09T05:25:15.137Z,21.73
2018-10-09T05:27:43.805Z,19.17
2018-10-09T05:30:13.234Z,20.63
2018-10-09T05:32:41.817Z,20.57
2018-10-09T05:35:10.394Z,21.43
2018-10-09T05:37:39.166Z,21.43
2018-10-09T05:40:07.903Z,20.13
2018-10-09T05:42:36.142Z,20.53
2018-10-09T05:45:04.984Z,20.67
2018-10-09T05:47:33.521Z,20.30
2018-10-09T05:50:02.302Z,21.57
2018-10-09T05:52:31.004Z,20.60
2018-10-09T05:54:59.558Z,21.00
2018-10-09T05:57:28.252Z,19.47
2018-10-09T05:59:56.981Z,20.07
2018-10-09T06:02:25.679Z,21.27
2018-10-09T06:04:54.700Z,20.70
2018-10-09T06:07:23.559Z,21.97
2018-10-09T06:09:52.442Z,22.43
2018-10-09T06:12:21.662Z,25.70
2018-10-09T06:14:49.943Z,27.77
2018-10-09T06:17:18.186Z,24.60
2018-10-09T06:19:46.422Z,24.73
2018-10-09T06:22:14.701Z,23.77
2018-10-09T06:24:42.978Z,22.60
2018-10-09T06:27:11.298Z,22.23
2018-10-09T06:29:39.479Z,24.70
2018-10-09T06:32:07.725Z,25.43
2018-10-09T06:34:35.982Z,27.23
2018-10-09T06:37:04.658Z,24.47
2018-10-09T06:39:33.069Z,24.13
2018-10-09T06:42:01.570Z,21.13
2018-10-09T06:44:30.551Z,20.50
2018-10-09T06:46:59.344Z,21.83
2018-10-09T06:49:27.614Z,20.87
2018-10-09T06:51:55.946Z,21.13
2018-10-09T06:54:24.237Z,21.63
2018-10-09T06:56:52.445Z,19.93
2018-10-09T06:59:20.695Z,20.07
2018-10-09T07:01:49.127Z,23.53
2018-10-09T07:04:17.379Z,21.47
2018-10-09T07:06:45.716Z,21.83
2018-10-09T07:09:13.937Z,21.33
2018-10-09T07:11:42.443Z,20.83
2018-10-09T07:14:10.558Z,21.63
2018-10-09T07:16:38.974Z,20.80
2018-10-09T07:19:07.219Z,20.63
2018-10-09T07:21:36.010Z,22.43
2018-10-09T07:24:04.712Z,20.80
2018-10-09T07:26:33.944Z,26.30
2018-10-09T07:29:02.691Z,24.60
2018-10-09T07:31:31.489Z,20.17
2018-10-09T07:34:00.443Z,20.50
2018-10-09T07:36:29.028Z,20.37
2018-10-09T07:38:58.176Z,21.27
2018-10-09T07:41:26.890Z,22.23
2018-10-09T07:43:55.779Z,20.57
2018-10-09T07:46:24.933Z,21.03
2018-10-09T07:48:54.242Z,21.90
2018-10-09T07:51:22.927Z,27.23
2018-10-09T07:53:51.534Z,21.80
2018-10-09T07:56:19.781Z,21.50
2018-10-09T07:58:48.250Z,20.80
2018-10-09T08:01:16.419Z,19.17
2018-10-09T08:03:45.189Z,21.37
2018-10-09T08:06:13.658Z,21.20
2018-10-09T08:08:42.123Z,19.33
2018-10-09T08:11:10.762Z,20.10
2018-10-09T08:13:39.073Z,20.20
2018-10-09T08:16:07.725Z,20.63
2018-10-09T08:18:36.030Z,21.80
2018-10-09T08:21:04.677Z,20.70
2018-10-09T08:23:33.743Z,20.03
2018-10-09T08:26:02.280Z,20.10
2018-10-09T08:28:31.418Z,25.60
2018-10-09T08:31:00.545Z,20.63
2018-10-09T08:33:29.195Z,20.60
2018-10-09T08:35:57.765Z,19.70
2018-10-09T08:38:26.830Z,21.40
2018-10-09T08:40:55.887Z,21.33
2018-10-09T08:43:24.581Z,19.20
2018-10-09T08:45:53.416Z,19.10
2018-10-09T08:48:22.183Z,18.33
2018-10-09T08:50:50.405Z,18.63
2018-10-09T08:53:18.634Z,20.17
2018-10-09T08:55:46.958Z,18.97
2018-10-09T08:58:15.281Z,20.27
2018-10-09T09:00:43.587Z,20.83
2018-10-09T09:03:11.876Z,21.23
2018-10-09T09:05:40.395Z,20.40
2018-10-09T09:08:08.697Z,20.40
2018-10-09T09:10:37.054Z,20.90
2018-10-09T09:13:05.358Z,19.77
2018-10-09T09:15:33.731Z,19.70
2018-10-09T09:18:02.144Z,19.10
2018-10-09T09:20:31.099Z,19.93
2018-10-09T09:22:59.624Z,19.30
2018-10-09T09:25:28.522Z,18.93
2018-10-09T09:27:57.510Z,18.13
2018-10-09T09:30:26.880Z,18.20
2018-10-09T09:32:55.502Z,17.47
2018-10-09T09:35:24.466Z,16.37
2018-10-09T09:37:52.683Z,16.57
2018-10-09T09:40:21.130Z,16.33
2018-10-09T09:42:50.006Z,16.43
2018-10-09T09:45:18.567Z,17.23
2018-10-09T09:47:46.765Z,17.63
2018-10-09T09:50:15.385Z,23.03
2018-10-09T09:52:44.628Z,17.07
2018-10-09T09:55:13.357Z,16.83
2018-10-09T09:57:41.612Z,16.43
2018-10-09T10:00:15.223Z,16.97
2018-10-09T10:02:43.415Z,16.60
2018-10-09T10:05:11.875Z,15.73
2018-10-09T10:07:40.194Z,15.70
2018-10-09T10:10:08.399Z,16.47
2018-10-09T10:12:37.320Z,15.20
2018-10-09T10:15:05.642Z,15.40
2018-10-09T10:17:33.983Z,15.70
2018-10-09T10:20:02.309Z,16.07
2018-10-09T10:22:30.815Z,15.47
2018-10-09T10:24:59.102Z,15.10
2018-10-09T10:27:27.376Z,15.07
2018-10-09T10:29:55.645Z,14.17
2018-10-09T10:32:23.972Z,15.23
2018-10-09T10:34:52.374Z,14.33
2018-10-09T10:37:20.788Z,14.23
2018-10-09T10:39:49.460Z,15.53
2018-10-09T10:42:17.815Z,13.40
2018-10-09T10:44:46.417Z,13.60
2018-10-09T10:47:14.634Z,12.27
2018-10-09T10:49:42.882Z,12.40
2018-10-09T10:52:11.123Z,12.93
2018-10-09T10:54:39.375Z,12.20
2018-10-09T10:57:07.742Z,12.90
2018-10-09T10:59:36.188Z,12.07
2018-10-09T11:02:04.519Z,12.93
2018-10-09T11:04:32.854Z,13.00
2018-10-09T11:07:01.033Z,12.60
2018-10-09T11:09:29.553Z,13.47
2018-10-09T11:11:57.738Z,13.10
2018-10-09T11:14:26.028Z,13.13
2018-10-09T11:16:54.440Z,11.57
2018-10-09T11:19:22.754Z,12.17
2018-10-09T11:21:51.147Z,10.53
2018-10-09T11:24:19.562Z,10.10
2018-10-09T11:26:47.834Z,9.70
2018-10-09T11:29:16.616Z,10.10
2018-10-09T11:31:44.844Z,10.80
2018-10-09T11:34:13.202Z,9.90
2018-10-09T11:36:41.435Z,9.97
2018-10-09T11:39:10.010Z,10.63
2018-10-09T11:41:38.514Z,9.77
2018-10-09T11:44:06.764Z,9.83
2018-10-09T11:46:35.987Z,10.27
2018-10-09T11:49:04.373Z,9.33
2018-10-09T11:51:32.684Z,9.80
2018-10-09T11:54:01.014Z,10.13
2018-10-09T11:56:29.194Z,10.97
2018-10-09T11:58:57.467Z,9.53
2018-10-09T12:01:26.072Z,9.80
2018-10-09T12:03:54.374Z,8.67
2018-10-09T12:06:22.736Z,9.73
2018-10-09T12:08:51.012Z,9.50
2018-10-09T12:11:19.270Z,8.17
2018-10-09T12:13:47.633Z,9.80
2018-10-09T12:16:16.030Z,11.13
2018-10-09T12:18:44.401Z,10.20
2018-10-09T12:21:12.590Z,9.73
2018-10-09T12:23:40.890Z,10.87
2018-10-09T12:26:09.086Z,10.60
2018-10-09T12:28:37.380Z,9.23
2018-10-09T12:31:05.608Z,11.47
2018-10-09T12:33:33.825Z,11.13
2018-10-09T12:36:02.252Z,11.27
2018-10-09T12:38:30.556Z,12.10
2018-10-09T12:40:58.944Z,11.63
2018-10-09T12:43:27.410Z,11.07
2018-10-09T12:45:56.480Z,11.87
2018-10-09T12:48:24.824Z,10.10
2018-10-09T12:50:53.145Z,10.27
2018-10-09T12:53:21.446Z,9.80
2018-10-09T12:55:49.726Z,8.60
2018-10-09T12:58:17.980Z,9.80
2018-10-09T13:00:46.192Z,9.47
2018-10-09T13:03:14.428Z,8.07
2018-10-09T13:05:43.253Z,9.03
2018-10-09T13:08:11.754Z,9.97
2018-10-09T13:10:40.483Z,9.30
2018-10-09T13:13:09.214Z,9.03
2018-10-09T13:15:37.427Z,7.63
2018-10-09T13:18:05.683Z,9.00
2018-10-09T13:20:34.059Z,7.83
2018-10-09T13:23:02.294Z,8.50
2018-10-09T13:25:30.872Z,8.23
2018-10-09T13:27:59.742Z,8.83
2018-10-09T13:30:28.083Z,8.27
2018-10-09T13:32:56.258Z,8.50
2018-10-09T13:35:24.579Z,8.87
2018-10-09T13:37:53.233Z,8.27
2018-10-09T13:40:21.413Z,6.87
2018-10-09T13:42:49.957Z,7.60
2018-10-09T13:45:18.270Z,8.87
2018-10-09T13:47:46.458Z,9.00
2018-10-09T13:50:14.912Z,7.67
2018-10-09T13:52:43.245Z,7.77
2018-10-09T13:55:11.557Z,7.30
2018-10-09T13:57:39.846Z,7.67
2018-10-09T14:00:08.096Z,7.87
2018-10-09T14:02:36.400Z,7.87
2018-10-09T14:05:04.989Z,7.53
2018-10-09T14:07:33.211Z,8.00
2018-10-09T14:10:01.464Z,6.80
2018-10-09T14:12:29.759Z,6.83
2018-10-09T14:14:58.061Z,11.13
2018-10-09T14:17:26.412Z,8.10
2018-10-09T14:19:54.696Z,7.53
2018-10-09T14:22:23.050Z,7.27
2018-10-09T14:24:51.812Z,7.40
2018-10-09T14:27:19.995Z,8.00
2018-10-09T14:29:48.387Z,6.87
2018-10-09T14:32:16.804Z,7.73
2018-10-09T14:34:45.154Z,7.17
2018-10-09T14:37:13.905Z,7.00
2018-10-09T14:39:42.110Z,7.50
2018-10-09T14:42:10.458Z,7.40
2018-10-09T14:44:38.677Z,7.37
2018-10-09T14:47:06.872Z,7.53
2018-10-09T14:49:35.058Z,10.23
2018-10-09T14:52:03.817Z,9.23
2018-10-09T14:54:32.224Z,9.23
2018-10-09T14:57:00.460Z,8.27
2018-10-09T14:59:28.868Z,8.60
2018-10-09T15:01:57.358Z,8.73
2018-10-09T15:04:25.876Z,8.73
2018-10-09T15:06:54.585Z,8.67
2018-10-09T15:09:22.881Z,9.30
2018-10-09T15:11:51.222Z,8.73
2018-10-09T15:14:19.590Z,9.13
2018-10-09T15:16:48.265Z,11.77
2018-10-09T15:19:16.708Z,8.93
2018-10-09T15:21:45.041Z,9.83
2018-10-09T15:24:13.336Z,10.03
2018-10-09T15:26:42.218Z,8.97
2018-10-09T15:29:10.890Z,8.60
2018-10-09T15:31:39.091Z,9.67
2018-10-09T15:34:07.595Z,10.03
2018-10-09T15:36:35.805Z,10.27
2018-10-09T15:39:06.128Z,9.63
2018-10-09T15:41:35.134Z,9.07
2018-10-09T15:44:03.315Z,10.33
2018-10-09T15:46:31.596Z,9.83
2018-10-09T15:48:59.828Z,9.17
2018-10-09T15:51:28.268Z,14.50
2018-10-09T15:53:56.555Z,9.60
2018-10-09T15:56:24.821Z,9.20
2018-10-09T15:58:53.311Z,9.50
2018-10-09T16:01:21.528Z,8.60
2018-10-09T16:03:49.762Z,8.33
2018-10-09T16:06:17.983Z,8.23
2018-10-09T16:08:46.346Z,9.10
2018-10-09T16:11:14.680Z,8.73
2018-10-09T16:13:43.088Z,8.90
2018-10-09T16:16:11.355Z,9.33
2018-10-09T16:18:39.654Z,9.63
2018-10-09T16:21:07.828Z,9.13
2018-10-09T16:23:36.170Z,10.07
2018-10-09T16:26:04.338Z,9.60
2018-10-09T16:28:32.869Z,9.33
2018-10-09T16:31:01.388Z,8.77
2018-10-09T16:33:29.635Z,9.40
2018-10-09T16:35:57.894Z,9.67
2018-10-09T16:38:26.333Z,10.10
2018-10-09T16:40:54.773Z,9.20
2018-10-09T16:43:23.034Z,11.50
2018-10-09T16:45:51.264Z,10.77
2018-10-09T16:48:19.520Z,18.37
2018-10-09T16:50:47.902Z,84.67
2018-10-09T16:53:16.142Z,14.63
2018-10-09T16:55:44.434Z,14.37
2018-10-09T16:58:12.690Z,10.70
2018-10-09T17:00:41.000Z,12.77
2018-10-09T17:03:09.467Z,12.70
2018-10-09T17:05:37.975Z,12.90
2018-10-09T17:08:07.212Z,14.03
2018-10-09T17:10:35.504Z,12.27
2018-10-09T17:13:03.914Z,12.83
2018-10-09T17:15:32.412Z,13.77
2018-10-09T17:18:01.048Z,12.80
2018-10-09T17:20:29.407Z,12.17
2018-10-09T17:22:57.969Z,12.37
2018-10-09T17:25:26.201Z,13.07
2018-10-09T17:27:54.652Z,13.43
2018-10-09T17:30:23.222Z,13.03
2018-10-09T17:32:51.947Z,13.87
2018-10-09T17:35:21.573Z,13.93
2018-10-09T17:37:49.692Z,14.40
2018-10-09T17:40:18.004Z,14.60
2018-10-09T17:42:46.679Z,16.53
2018-10-09T17:45:15.539Z,16.10
2018-10-09T17:47:44.810Z,14.90
2018-10-09T17:50:13.034Z,15.90
2018-10-09T17:52:42.042Z,15.07
2018-10-09T17:55:10.958Z,15.67
2018-10-09T17:57:39.266Z,16.40
2018-10-09T18:00:08.692Z,16.53
2018-10-09T18:02:37.088Z,17.00
2018-10-09T18:05:05.955Z,16.57
2018-10-09T18:07:34.986Z,17.17
2018-10-09T18:10:03.501Z,17.53
2018-10-09T18:12:31.771Z,22.40
2018-10-09T18:15:00.683Z,18.47
2018-10-09T18:17:28.918Z,18.60
2018-10-09T18:19:57.662Z,17.30
2018-10-09T18:22:26.038Z,17.00
2018-10-09T18:24:54.462Z,17.47
2018-10-09T18:27:23.359Z,19.20
2018-10-09T18:29:52.014Z,17.17
2018-10-09T18:32:20.455Z,61.40
2018-10-09T18:34:48.676Z,18.00
2018-10-09T18:37:17.204Z,16.80
2018-10-09T18:39:45.539Z,16.47
2018-10-09T18:42:13.971Z,17.10
2018-10-09T18:44:43.869Z,16.10
2018-10-09T18:47:17.896Z,15.50
2018-10-09T18:49:46.781Z,16.53
2018-10-09T18:52:15.096Z,17.57
2018-10-09T18:54:43.642Z,19.37
2018-10-09T18:57:11.891Z,18.67
2018-10-09T18:59:40.789Z,18.10
2018-10-09T19:02:09.274Z,18.27
2018-10-09T19:04:38.217Z,20.20
2018-10-09T19:07:06.447Z,22.10
2018-10-09T19:09:35.373Z,22.33
2018-10-09T19:12:04.029Z,20.50
2018-10-09T19:14:32.879Z,24.97
2018-10-09T19:17:01.762Z,24.07
2018-10-09T19:19:30.682Z,24.73
2018-10-09T19:21:58.958Z,25.80
2018-10-09T19:24:27.986Z,24.50
2018-10-09T19:26:56.618Z,26.53
2018-10-09T19:29:24.889Z,27.97
2018-10-09T19:31:53.280Z,27.43
2018-10-09T19:34:21.879Z,28.97
2018-10-09T19:36:50.182Z,27.93
2018-10-09T19:39:18.542Z,28.73
2018-10-09T19:41:46.995Z,28.97
2018-10-09T19:44:15.506Z,29.67
2018-10-09T19:46:43.766Z,29.37
2018-10-09T19:49:12.174Z,31.77
2018-10-09T19:51:40.509Z,30.07
2018-10-09T19:54:08.726Z,31.37
2018-10-09T19:56:37.609Z,31.13
2018-10-09T19:59:05.964Z,30.93
2018-10-09T20:01:34.690Z,32.03
2018-10-09T20:04:02.973Z,30.40
2018-10-09T20:06:31.850Z,33.00
2018-10-09T20:09:00.316Z,31.33
2018-10-09T20:11:29.379Z,32.53
2018-10-09T20:13:57.652Z,33.37
2018-10-09T20:16:26.996Z,31.30
2018-10-09T20:18:56.815Z,29.93
2018-10-09T20:21:26.304Z,32.10
2018-10-09T20:23:54.975Z,29.20
2018-10-09T20:26:23.721Z,31.60
2018-10-09T20:28:52.450Z,31.27
2018-10-09T20:31:21.954Z,32.30
2018-10-09T20:33:50.817Z,32.93
2018-10-09T20:36:21.111Z,31.17
2018-10-09T20:38:50.402Z,31.33
2018-10-09T20:41:19.681Z,31.80
2018-10-09T20:43:48.449Z,31.40
2018-10-09T20:46:16.958Z,30.70
2018-10-09T20:48:45.494Z,32.43
2018-10-09T20:51:13.989Z,33.20
2018-10-09T20:53:43.213Z,30.40
2018-10-09T20:56:11.482Z,31.13
2018-10-09T20:58:39.878Z,31.30
2018-10-09T21:01:08.501Z,29.77
2018-10-09T21:03:36.724Z,30.40
2018-10-09T21:06:05.130Z,28.97
2018-10-09T21:08:34.422Z,29.10
2018-10-09T21:11:03.302Z,29.63
2018-10-09T21:13:31.540Z,29.10
2018-10-09T21:15:59.958Z,26.90
2018-10-09T21:18:28.637Z,27.93
2018-10-09T21:20:56.890Z,29.50
2018-10-09T21:23:25.434Z,30.43
2018-10-09T21:25:54.311Z,26.57
2018-10-09T21:28:22.552Z,26.83
2018-10-09T21:30:51.402Z,26.27
2018-10-09T21:33:19.654Z,27.47
2018-10-09T21:35:48.543Z,26.80
2018-10-09T21:38:16.820Z,27.90
2018-10-09T21:40:45.084Z,28.03
2018-10-09T21:43:13.803Z,29.43
2018-10-09T21:45:42.038Z,29.50
2018-10-09T21:48:10.638Z,27.77
2018-10-09T21:50:38.875Z,29.60
2018-10-09T21:53:07.091Z,27.40
2018-10-09T21:55:35.330Z,29.40
2018-10-09T21:58:03.876Z,27.20
2018-10-09T22:00:36.402Z,28.37
2018-10-09T22:03:05.160Z,27.43
2018-10-09T22:05:34.579Z,26.73
2018-10-09T22:08:03.593Z,29.40
2018-10-09T22:10:32.495Z,29.03
2018-10-09T22:13:01.500Z,28.13
2018-10-09T22:15:30.045Z,27.17
2018-10-09T22:17:59.133Z,29.87
2018-10-09T22:20:29.356Z,28.00
2018-10-09T22:22:57.934Z,27.07
2018-10-09T22:25:26.649Z,28.70
2018-10-09T22:27:55.612Z,27.53
2018-10-09T22:30:24.289Z,25.80
2018-10-09T22:32:53.145Z,29.33
2018-10-09T22:35:22.791Z,28.53
2018-10-09T22:37:52.447Z,29.70
2018-10-09T22:40:21.548Z,30.17
2018-10-09T22:42:50.854Z,28.60
2018-10-09T22:45:20.157Z,28.33
2018-10-09T22:47:49.121Z,27.77
2018-10-09T22:50:17.695Z,30.70
2018-10-09T22:52:46.336Z,27.80
2018-10-09T22:55:15.351Z,27.27
2018-10-09T22:57:44.613Z,26.53
2018-10-09T23:00:13.316Z,27.47
2018-10-09T23:02:42.215Z,28.93
2018-10-09T23:05:11.052Z,23.57
2018-10-09T23:07:40.336Z,23.73
2018-10-09T23:10:09.000Z,27.37
2018-10-09T23:12:37.804Z,26.20
2018-10-09T23:15:07.004Z,29.97
2018-10-09T23:17:36.531Z,31.60
2018-10-09T23:20:06.241Z,30.03
2018-10-09T23:22:35.566Z,31.57
2018-10-09T23:25:04.841Z,32.67
2018-10-09T23:27:33.596Z,31.90
2018-10-09T23:30:02.306Z,34.10
2018-10-09T23:32:31.401Z,31.23
2018-10-09T23:35:00.594Z,31.33
2018-10-09T23:37:30.201Z,31.47
2018-10-09T23:39:59.321Z,31.67
2018-10-09T23:42:28.427Z,29.07
2018-10-09T23:44:57.325Z,29.30
2018-10-09T23:47:26.142Z,30.60
2018-10-09T23:49:55.178Z,27.47
2018-10-09T23:52:24.328Z,31.27
2018-10-09T23:54:53.052Z,34.07
2018-10-09T23:57:21.703Z,32.50
2018-10-09T23:59:50.455Z,32.00
